East Dennis, MA (02641)

2:57 PM EDT on August 21, 2014 (GMT -0400)
Scargo Hill Dennis MA | Change Station
CLOSE
Current Station
Personal Weather Station
Location: Dennis, MA
Elevation: 133 ft
Nearby Weather Stations

Elev 133 ft 41.74 °N, 70.18 °W | Updated 0 second ago

Mostly Cloudy
Mostly Cloudy
75.2 °F
Feels Like 74 °F
N
0.0
Wind Variable Wind from NW
Gusts 1.6 mph

Today
High -- | Low -- °F
--% Chance of Precip.
Yesterday
High -- | Low -- °F
Precip. -- in
5:55 AM 7:31 PM
Waning Crescent, 13% visible
Pressure 30.06 in
Visibility 10.0 miles
Clouds Few 2400 ft
Few 2900 ft
Mostly Cloudy 3800 ft
Heat Index 74 °F
Dew Point 74 °F
Humidity 95%
Rainfall 0.00 in
Snow Depth Not available.
UV 5 out of 12
Pollen 8.20 out of 12
Air Quality Not available.
Flu Activity Not available.
METAR KHYA 211756Z 03008KT 10SM FEW024 FEW029 BKN038 24/16 A3005 RMK AO2 SLP178 T02440156 10256 20206 58005

More Conditions Fewer Conditions

Pressure 30.06 in
Visibility 10.0 miles
Clouds Few 2400 ft
Few 2900 ft
Mostly Cloudy 3800 ft
Heat Index 74 °F
Dew Point 74 °F
Humidity 95%
Rainfall 0.00 in
Snow Depth Not available.
UV 5 out of 12
Pollen 8.20 out of 12
Air Quality Not available.
Flu Activity Not available.
METAR KHYA 211756Z 03008KT 10SM FEW024 FEW029 BKN038 24/16 A3005 RMK AO2 SLP178 T02440156 10256 20206 58005

More Conditions Fewer Conditions

10-Day Weather Forecast

Almanac

Astronomy

Aug. 21, 2014 Rise Set
Actual Time 5:55 AM EDT 7:31 PM EDT
Civil Twilight 5:25 AM EDT 8:00 PM EDT
Nautical Twilight 4:50 AM EDT 8:36 PM EDT
Astronomical Twilight 4:12 AM EDT 9:14 PM EDT
Moon 2:21 AM EDT 4:59 PM EDT
Length of Visible Light 14h 35m
Length of Day
13h 36m
Tomorrow will be 2m 34s shorter.
Waning Crescent, 13% of the Moon is Illuminated
Today
Waning Crescent
Aug 25
New
Sep 2
First Quarter
Sep 8
Full
Sep 15
Last Quarter

Today's Extremes

State Highs State Lows

Community

WunderPhotos

Upload Photos

1,745,996 photos uploaded!

WunderBlogs® & News

Nearby

Air Quality

  Air Quality AQ Index Pollutant
Yesterday Good
OZONE
Thursday Good
PM2.5
Thursday Good
OZONE

Snow Depth

Station Depth Elevation
No new snow has been reported.

Earthquake Activity

City Distance Mag. Time & Date
No recent earthquake activity has been reported nearby.
Minimum magnitude displayed is 2.5.

Coastal Water Temperatures

Place Temperature
Woods Hole, MA 71.1 °F
Nantucket Island, MA 73.9 °F
Boston, MA 66.0 °F
Fall River, MA 73.9 °F

Nearby Weather Stations